createdAt,value
2023-01-22T00:02:16.091Z,98.00
2023-01-22T00:04:42.984Z,98.40
2023-01-22T00:07:09.953Z,98.50
2023-01-22T00:09:36.768Z,98.70
2023-01-22T00:12:04.083Z,98.20
2023-01-22T00:14:30.956Z,97.00
2023-01-22T00:16:58.247Z,96.60
2023-01-22T00:19:25.105Z,96.00
2023-01-22T00:21:51.958Z,95.90
2023-01-22T00:24:18.774Z,96.50
2023-01-22T00:26:45.839Z,97.00
2023-01-22T00:29:12.917Z,97.90
2023-01-22T00:31:39.686Z,98.10
2023-01-22T00:34:09.037Z,97.80
2023-01-22T00:36:35.932Z,98.00
2023-01-22T00:39:02.803Z,97.90
2023-01-22T00:41:29.630Z,97.80
2023-01-22T00:43:56.620Z,97.70
2023-01-22T00:46:23.628Z,97.50
2023-01-22T00:48:51.100Z,96.90
2023-01-22T00:51:18.540Z,96.10
2023-01-22T00:53:45.967Z,95.90
2023-01-22T00:56:14.882Z,95.70
2023-01-22T00:58:42.161Z,95.60
2023-01-22T01:01:09.668Z,95.70
2023-01-22T01:03:37.683Z,95.40
2023-01-22T01:06:15.093Z,95.00
2023-01-22T01:08:43.914Z,94.90
2023-01-22T01:11:16.454Z,94.60
2023-01-22T01:13:43.810Z,94.40
2023-01-22T01:16:31.531Z,94.10
2023-01-22T01:19:10.028Z,94.10
2023-01-22T01:21:37.006Z,94.10
2023-01-22T01:24:04.214Z,94.40
2023-01-22T01:26:33.606Z,94.70
2023-01-22T01:29:04.617Z,94.90
2023-01-22T01:31:31.741Z,94.80
2023-01-22T01:33:58.668Z,94.50
2023-01-22T01:36:46.190Z,94.30
2023-01-22T01:39:12.664Z,94.30
2023-01-22T01:41:39.681Z,94.30
2023-01-22T01:44:18.331Z,94.30
2023-01-22T01:46:52.851Z,94.30
2023-01-22T01:49:25.995Z,94.50
2023-01-22T01:51:55.831Z,94.10
2023-01-22T01:54:22.848Z,94.00
2023-01-22T01:56:54.952Z,94.20
2023-01-22T01:59:22.379Z,96.20
2023-01-22T02:01:54.608Z,98.10
2023-01-22T02:04:22.739Z,97.00
2023-01-22T02:06:49.532Z,96.50
2023-01-22T02:09:16.427Z,96.10
2023-01-22T02:11:44.179Z,95.80
2023-01-22T02:14:16.261Z,95.60
2023-01-22T02:16:43.325Z,95.60
2023-01-22T02:19:10.149Z,95.60
2023-01-22T02:21:39.548Z,95.60
2023-01-22T02:24:25.013Z,95.30
2023-01-22T02:26:51.950Z,95.00
2023-01-22T02:29:20.392Z,94.70
2023-01-22T02:31:47.822Z,94.60
2023-01-22T02:34:14.905Z,94.40
2023-01-22T02:36:45.471Z,94.30
2023-01-22T02:39:12.356Z,94.00
2023-01-22T02:41:39.554Z,93.50
2023-01-22T02:44:07.535Z,93.30
2023-01-22T02:46:35.072Z,93.40
2023-01-22T02:49:02.345Z,93.20
2023-01-22T02:51:32.060Z,93.20
2023-01-22T02:53:58.887Z,93.40
2023-01-22T02:56:25.953Z,93.20
2023-01-22T02:58:52.768Z,93.10
2023-01-22T03:01:22.733Z,93.20
2023-01-22T03:03:57.401Z,93.50
2023-01-22T03:06:28.515Z,93.70
2023-01-22T03:09:00.331Z,94.30
2023-01-22T03:11:29.861Z,94.10
2023-01-22T03:14:15.753Z,94.30
2023-01-22T03:17:02.361Z,94.00
2023-01-22T03:19:48.479Z,93.90
2023-01-22T03:22:18.887Z,93.90
2023-01-22T03:24:51.245Z,94.00
2023-01-22T03:27:21.176Z,94.40
2023-01-22T03:29:48.046Z,94.50
2023-01-22T03:32:16.070Z,94.70
2023-01-22T03:34:42.920Z,94.80
2023-01-22T03:37:12.860Z,94.70
2023-01-22T03:39:42.182Z,94.70
2023-01-22T03:42:12.363Z,94.90
2023-01-22T03:44:39.226Z,95.10
2023-01-22T03:47:06.518Z,95.30
2023-01-22T03:49:33.493Z,94.90
2023-01-22T03:52:00.374Z,94.80
2023-01-22T03:54:27.257Z,95.20
2023-01-22T03:56:56.760Z,95.20
2023-01-22T03:59:29.159Z,95.70
2023-01-22T04:01:56.048Z,95.70
2023-01-22T04:04:23.118Z,95.70
2023-01-22T04:06:50.382Z,95.60
2023-01-22T04:09:17.282Z,95.50
2023-01-22T04:11:48.227Z,95.40
2023-01-22T04:14:17.554Z,95.10
2023-01-22T04:16:53.589Z,95.10
2023-01-22T04:19:30.363Z,95.10
2023-01-22T04:22:09.101Z,95.10
2023-01-22T04:24:36.446Z,95.20
2023-01-22T04:27:05.132Z,95.00
2023-01-22T04:29:31.896Z,94.60
2023-01-22T04:31:58.735Z,93.90
2023-01-22T04:34:44.335Z,93.80
2023-01-22T04:37:20.631Z,93.90
2023-01-22T04:39:47.463Z,94.10
2023-01-22T04:42:14.417Z,94.20
2023-01-22T04:44:42.061Z,94.00
2023-01-22T04:47:08.980Z,93.10
2023-01-22T04:49:37.607Z,92.30
2023-01-22T04:52:06.080Z,92.20
2023-01-22T04:54:33.495Z,92.20
2023-01-22T04:57:00.999Z,92.10
2023-01-22T04:59:28.080Z,92.10
2023-01-22T05:01:56.667Z,92.10
2023-01-22T05:04:23.925Z,92.10
2023-01-22T05:06:50.695Z,92.00
2023-01-22T05:09:17.797Z,92.20
2023-01-22T05:12:01.007Z,93.10
2023-01-22T05:14:33.020Z,94.00
2023-01-22T05:17:01.559Z,94.20
2023-01-22T05:19:28.387Z,94.30
2023-01-22T05:21:55.461Z,94.10
2023-01-22T05:24:22.438Z,94.10
2023-01-22T05:26:49.204Z,94.20
2023-01-22T05:29:26.065Z,94.40
2023-01-22T05:32:15.986Z,94.40
2023-01-22T05:34:48.283Z,94.20
2023-01-22T05:37:15.131Z,94.00
2023-01-22T05:39:41.927Z,93.60
2023-01-22T05:42:15.309Z,93.40
2023-01-22T05:44:44.754Z,93.80
2023-01-22T05:47:13.613Z,94.20
2023-01-22T05:50:03.435Z,94.50
2023-01-22T05:52:30.237Z,94.80
2023-01-22T05:54:59.843Z,95.10
2023-01-22T05:57:29.785Z,95.20
2023-01-22T05:59:56.761Z,95.30
2023-01-22T06:02:23.747Z,95.50
2023-01-22T06:04:52.563Z,95.30
2023-01-22T06:07:25.598Z,94.80
2023-01-22T06:09:52.903Z,94.30
2023-01-22T06:12:19.720Z,93.80
2023-01-22T06:14:47.225Z,93.40
2023-01-22T06:17:14.562Z,92.90
2023-01-22T06:19:55.499Z,92.70
2023-01-22T06:22:22.277Z,92.80
2023-01-22T06:24:56.564Z,93.00
2023-01-22T06:27:27.093Z,92.70
2023-01-22T06:29:58.603Z,93.00
2023-01-22T06:32:26.228Z,93.30
2023-01-22T06:34:53.122Z,93.50
2023-01-22T06:37:21.213Z,94.20
2023-01-22T06:39:48.346Z,95.20
2023-01-22T06:42:38.473Z,96.30
2023-01-22T06:45:07.374Z,96.30
2023-01-22T06:47:35.352Z,96.60
2023-01-22T06:50:03.111Z,96.90
2023-01-22T06:52:29.951Z,97.00
2023-01-22T06:54:57.003Z,97.00
2023-01-22T06:57:25.693Z,96.40
2023-01-22T06:59:52.715Z,95.80
2023-01-22T07:02:19.722Z,95.50
2023-01-22T07:04:46.665Z,95.00
2023-01-22T07:07:13.934Z,94.70
2023-01-22T07:09:40.803Z,94.70
2023-01-22T07:12:07.853Z,95.30
2023-01-22T07:14:37.475Z,96.30
2023-01-22T07:17:04.990Z,96.60
2023-01-22T07:19:31.941Z,96.50
2023-01-22T07:21:59.161Z,95.80
2023-01-22T07:24:25.980Z,94.90
2023-01-22T07:26:52.882Z,93.80
2023-01-22T07:29:19.667Z,93.50
2023-01-22T07:31:49.668Z,93.40
2023-01-22T07:34:16.689Z,93.30
2023-01-22T07:36:43.556Z,94.10
2023-01-22T07:39:10.324Z,94.60
2023-01-22T07:41:37.196Z,95.30
2023-01-22T07:44:11.490Z,96.70
2023-01-22T07:46:39.138Z,97.10
2023-01-22T07:49:06.406Z,97.30
2023-01-22T07:51:33.276Z,96.90
2023-01-22T07:54:00.275Z,96.70
2023-01-22T07:56:27.061Z,96.30
2023-01-22T07:58:53.865Z,95.80
2023-01-22T08:01:20.749Z,95.30
2023-01-22T08:03:47.540Z,95.40
2023-01-22T08:06:16.186Z,95.30
2023-01-22T08:08:43.140Z,95.50
2023-01-22T08:11:09.985Z,95.70
2023-01-22T08:13:36.785Z,96.00
2023-01-22T08:16:03.723Z,95.90
2023-01-22T08:18:30.692Z,95.50
2023-01-22T08:21:01.275Z,95.00
2023-01-22T08:23:28.820Z,94.40
2023-01-22T08:26:00.607Z,94.40
2023-01-22T08:28:27.910Z,94.50
2023-01-22T08:30:59.833Z,94.30
2023-01-22T08:33:27.357Z,94.00
2023-01-22T08:35:54.393Z,94.10
2023-01-22T08:38:21.196Z,94.20
2023-01-22T08:40:52.188Z,94.20
2023-01-22T08:43:19.379Z,94.20
2023-01-22T08:45:48.120Z,94.10
2023-01-22T08:48:15.210Z,93.90
2023-01-22T08:50:41.955Z,94.00
2023-01-22T08:53:09.681Z,93.60
2023-01-22T08:55:36.737Z,93.10
2023-01-22T08:58:03.837Z,92.50
2023-01-22T09:00:30.576Z,92.10
2023-01-22T09:02:58.699Z,91.70
2023-01-22T09:05:27.082Z,91.00
2023-01-22T09:07:53.889Z,90.60
2023-01-22T09:10:22.031Z,90.40
2023-01-22T09:12:49.268Z,90.50
2023-01-22T09:15:16.254Z,90.30
2023-01-22T09:17:43.026Z,90.40
2023-01-22T09:20:10.495Z,90.30
2023-01-22T09:22:37.297Z,90.30
2023-01-22T09:25:05.090Z,89.90
2023-01-22T09:27:32.157Z,90.10
2023-01-22T09:29:59.216Z,90.40
2023-01-22T09:32:26.383Z,90.60
2023-01-22T09:34:53.328Z,89.60
2023-01-22T09:37:20.503Z,88.00
2023-01-22T09:39:50.573Z,88.10
2023-01-22T09:42:33.884Z,88.40
2023-01-22T09:45:11.976Z,89.10
2023-01-22T09:47:44.411Z,89.80
2023-01-22T09:50:26.852Z,90.40
2023-01-22T09:52:57.516Z,90.70
2023-01-22T09:55:29.851Z,90.60
2023-01-22T09:58:00.253Z,90.50
2023-01-22T10:00:48.015Z,90.70
2023-01-22T10:03:40.204Z,91.30
2023-01-22T10:06:12.846Z,91.90
2023-01-22T10:08:55.527Z,92.10
2023-01-22T10:11:22.558Z,92.40
2023-01-22T10:13:55.136Z,92.40
2023-01-22T10:16:22.150Z,92.30
2023-01-22T10:19:17.585Z,92.50
2023-01-22T10:21:50.791Z,92.60
2023-01-22T10:24:17.632Z,93.00
2023-01-22T10:26:54.573Z,93.40
2023-01-22T10:29:29.813Z,93.40
2023-01-22T10:32:18.240Z,93.40
2023-01-22T10:34:58.691Z,93.50
2023-01-22T10:37:25.663Z,94.00
2023-01-22T10:39:57.536Z,93.60
2023-01-22T10:42:27.800Z,93.20
2023-01-22T10:44:57.311Z,93.30
2023-01-22T10:47:27.501Z,92.70
2023-01-22T10:50:07.259Z,92.60
2023-01-22T10:52:36.722Z,91.80
2023-01-22T10:55:04.347Z,91.30
2023-01-22T10:57:36.920Z,90.80
2023-01-22T11:00:16.487Z,90.70
2023-01-22T11:02:46.066Z,90.70
2023-01-22T11:05:34.376Z,90.50
2023-01-22T11:08:05.560Z,89.20
2023-01-22T11:10:50.848Z,90.00
2023-01-22T11:13:44.839Z,89.00
2023-01-22T11:16:23.222Z,88.20
2023-01-22T11:19:21.714Z,87.60
2023-01-22T11:21:57.382Z,87.30
2023-01-22T11:24:42.896Z,87.50
2023-01-22T11:27:21.910Z,86.20
2023-01-22T11:30:28.193Z,84.50
2023-01-22T11:33:01.550Z,84.60
2023-01-22T11:35:36.222Z,84.20
2023-01-22T11:38:17.415Z,84.60
2023-01-22T11:41:08.346Z,85.40
2023-01-22T11:43:42.610Z,87.20
2023-01-22T11:46:15.287Z,89.90
2023-01-22T11:49:13.396Z,88.10
2023-01-22T11:51:53.501Z,83.50
2023-01-22T11:55:01.579Z,84.00
2023-01-22T11:57:43.685Z,84.20
2023-01-22T12:00:37.747Z,83.00
2023-01-22T12:03:19.425Z,82.20
2023-01-22T12:05:56.636Z,80.30
2023-01-22T12:08:48.774Z,80.90
2023-01-22T12:11:27.567Z,81.20
2023-01-22T12:14:28.015Z,81.40
2023-01-22T12:17:10.717Z,82.20
2023-01-22T12:20:03.886Z,82.20
2023-01-22T12:22:40.222Z,82.50
2023-01-22T12:25:14.734Z,81.80
2023-01-22T12:28:03.484Z,80.90
2023-01-22T12:30:42.070Z,79.50
2023-01-22T12:33:13.634Z,80.10
2023-01-22T12:35:40.680Z,80.20
2023-01-22T12:38:40.045Z,80.20
2023-01-22T12:41:39.069Z,79.60
2023-01-22T12:44:21.049Z,79.00
2023-01-22T12:47:10.660Z,78.10
2023-01-22T12:49:49.043Z,77.40
2023-01-22T12:52:37.129Z,76.80
2023-01-22T12:55:35.326Z,77.10
2023-01-22T12:58:03.031Z,76.80
2023-01-22T13:00:36.752Z,77.30
2023-01-22T13:03:31.793Z,78.10
2023-01-22T13:06:00.944Z,78.70
2023-01-22T13:08:45.128Z,79.70
2023-01-22T13:11:14.208Z,80.60
2023-01-22T13:13:49.686Z,80.80
2023-01-22T13:16:16.459Z,80.90
2023-01-22T13:18:54.105Z,81.60
2023-01-22T13:21:33.223Z,80.80
2023-01-22T13:24:05.359Z,79.50
2023-01-22T13:26:37.559Z,78.90
2023-01-22T13:29:21.409Z,79.40
2023-01-22T13:32:18.754Z,80.00
2023-01-22T13:34:46.047Z,80.40
2023-01-22T13:37:27.202Z,82.90
2023-01-22T13:39:53.980Z,83.40
2023-01-22T13:42:21.657Z,83.30
2023-01-22T13:44:50.547Z,84.60
2023-01-22T13:47:36.123Z,83.70
2023-01-22T13:50:03.678Z,83.10
2023-01-22T13:52:33.124Z,82.80
2023-01-22T13:54:59.909Z,82.80
2023-01-22T13:57:26.769Z,83.80
2023-01-22T13:59:58.938Z,84.60
2023-01-22T14:02:34.674Z,84.70
2023-01-22T14:05:02.288Z,84.80
2023-01-22T14:07:32.955Z,84.90
2023-01-22T14:10:15.365Z,85.40
2023-01-22T14:12:42.505Z,86.10
2023-01-22T14:15:20.914Z,86.00
2023-01-22T14:17:49.851Z,86.00
2023-01-22T14:20:17.942Z,85.90
2023-01-22T14:22:45.145Z,86.00
2023-01-22T14:25:11.959Z,86.20
2023-01-22T14:27:44.520Z,86.40
2023-01-22T14:30:14.710Z,86.60
2023-01-22T14:32:45.423Z,86.80
2023-01-22T14:35:17.988Z,86.90
2023-01-22T14:37:45.888Z,87.80
2023-01-22T14:40:14.684Z,88.60
2023-01-22T14:42:41.868Z,88.90
2023-01-22T14:45:10.121Z,89.00
2023-01-22T14:47:37.148Z,89.50
2023-01-22T14:50:04.523Z,89.90
2023-01-22T14:52:31.252Z,90.20
2023-01-22T14:54:58.210Z,90.20
2023-01-22T14:57:25.401Z,90.30
2023-01-22T14:59:52.305Z,90.50
2023-01-22T15:02:19.270Z,91.00
2023-01-22T15:04:46.135Z,90.80
2023-01-22T15:07:13.007Z,91.00
2023-01-22T15:09:40.304Z,91.10
2023-01-22T15:12:07.680Z,91.30
2023-01-22T15:14:34.629Z,91.50
2023-01-22T15:17:01.417Z,91.70
2023-01-22T15:19:32.177Z,91.60
2023-01-22T15:22:03.650Z,91.80
2023-01-22T15:24:30.504Z,91.90
2023-01-22T15:26:57.282Z,91.90
2023-01-22T15:29:24.232Z,91.90
2023-01-22T15:31:51.404Z,92.00
2023-01-22T15:34:18.315Z,92.00
2023-01-22T15:36:46.320Z,92.20
2023-01-22T15:39:13.266Z,92.40
2023-01-22T15:41:40.233Z,92.30
2023-01-22T15:44:07.982Z,91.70
2023-01-22T15:46:37.471Z,91.60
2023-01-22T15:49:08.135Z,92.00
2023-01-22T15:51:36.422Z,91.80
2023-01-22T15:54:05.397Z,91.60
2023-01-22T15:56:37.638Z,91.80
2023-01-22T15:59:05.149Z,92.00
2023-01-22T16:01:32.642Z,92.20
2023-01-22T16:04:01.070Z,92.50
2023-01-22T16:06:30.209Z,92.50
2023-01-22T16:08:59.418Z,92.80
2023-01-22T16:11:27.893Z,93.20
2023-01-22T16:13:55.436Z,93.30
2023-01-22T16:16:36.690Z,93.30
2023-01-22T16:19:06.574Z,92.70
2023-01-22T16:21:33.419Z,92.90
2023-01-22T16:24:01.472Z,93.20
2023-01-22T16:26:31.530Z,93.50
2023-01-22T16:29:00.414Z,93.40
2023-01-22T16:31:32.939Z,93.30
2023-01-22T16:34:06.449Z,93.70
2023-01-22T16:36:33.756Z,93.90
2023-01-22T16:39:00.510Z,94.10
2023-01-22T16:41:29.386Z,95.30
2023-01-22T16:44:11.756Z,96.50
2023-01-22T16:46:41.163Z,97.20
2023-01-22T16:49:21.080Z,97.60
2023-01-22T16:51:50.451Z,96.70
2023-01-22T16:54:28.058Z,95.30
2023-01-22T16:57:00.107Z,95.20
2023-01-22T16:59:27.361Z,95.50
2023-01-22T17:01:54.550Z,95.70
2023-01-22T17:04:21.668Z,96.50
2023-01-22T17:06:49.848Z,97.10
2023-01-22T17:09:22.372Z,97.60
2023-01-22T17:11:50.977Z,98.30
2023-01-22T17:14:20.213Z,98.50
2023-01-22T17:16:47.421Z,98.30
2023-01-22T17:19:14.576Z,98.20
2023-01-22T17:21:41.635Z,97.00
2023-01-22T17:24:10.964Z,96.50
2023-01-22T17:26:38.192Z,96.90
2023-01-22T17:29:05.062Z,96.60
2023-01-22T17:31:32.286Z,95.50
2023-01-22T17:33:59.239Z,94.90
2023-01-22T17:36:28.365Z,92.30
2023-01-22T17:38:56.712Z,92.60
2023-01-22T17:41:24.951Z,93.70
2023-01-22T17:43:53.037Z,93.70
2023-01-22T17:46:23.296Z,93.80
2023-01-22T17:48:51.885Z,94.00
2023-01-22T17:51:21.847Z,94.20
2023-01-22T17:53:50.551Z,94.00
2023-01-22T17:56:26.271Z,93.90
2023-01-22T17:58:56.701Z,93.70
2023-01-22T18:01:30.151Z,93.70
2023-01-22T18:03:58.909Z,93.70
2023-01-22T18:06:26.410Z,93.90
2023-01-22T18:08:53.819Z,93.70
2023-01-22T18:11:26.526Z,93.40
2023-01-22T18:14:16.712Z,93.10
2023-01-22T18:16:43.909Z,92.90
2023-01-22T18:19:10.732Z,93.00
2023-01-22T18:21:38.883Z,93.30
2023-01-22T18:24:07.747Z,93.30
2023-01-22T18:26:35.694Z,93.50
2023-01-22T18:29:03.362Z,93.70
2023-01-22T18:31:30.757Z,93.60
2023-01-22T18:34:01.337Z,93.30
2023-01-22T18:36:30.910Z,92.90
2023-01-22T18:39:04.448Z,92.50
2023-01-22T18:41:31.429Z,92.80
2023-01-22T18:44:00.559Z,93.00
2023-01-22T18:46:33.135Z,93.60
2023-01-22T18:49:02.512Z,93.30
2023-01-22T18:51:31.599Z,93.00
2023-01-22T18:53:59.475Z,92.90
2023-01-22T18:56:26.461Z,92.80
2023-01-22T18:58:54.886Z,92.90
2023-01-22T19:01:33.561Z,93.30
2023-01-22T19:04:07.356Z,93.90
2023-01-22T19:06:37.273Z,93.60
2023-01-22T19:09:12.254Z,93.70
2023-01-22T19:11:42.210Z,93.50
2023-01-22T19:14:12.607Z,93.10
2023-01-22T19:16:40.051Z,93.60
2023-01-22T19:19:11.336Z,93.80
2023-01-22T19:21:40.347Z,93.40
2023-01-22T19:24:08.730Z,93.00
2023-01-22T19:26:37.591Z,93.90
2023-01-22T19:29:11.639Z,93.70
2023-01-22T19:31:41.614Z,93.30
2023-01-22T19:34:09.637Z,94.40
2023-01-22T19:36:38.766Z,92.80
2023-01-22T19:39:11.938Z,92.00
2023-01-22T19:41:40.441Z,93.10
2023-01-22T19:44:08.815Z,94.30
2023-01-22T19:46:37.806Z,95.00
2023-01-22T19:49:06.361Z,95.50
2023-01-22T19:51:33.931Z,95.60
2023-01-22T19:54:01.906Z,93.80
2023-01-22T19:56:31.441Z,93.30
2023-01-22T19:59:11.204Z,95.20
2023-01-22T20:01:39.303Z,96.00
2023-01-22T20:04:12.057Z,96.70
2023-01-22T20:06:39.509Z,97.20
2023-01-22T20:09:06.455Z,97.70
2023-01-22T20:11:33.294Z,99.00
2023-01-22T20:14:00.247Z,99.00
2023-01-22T20:16:28.913Z,98.50
2023-01-22T20:18:57.551Z,98.30
2023-01-22T20:21:26.857Z,97.80
2023-01-22T20:23:53.998Z,95.90
2023-01-22T20:26:21.650Z,95.60
2023-01-22T20:28:49.325Z,95.70
2023-01-22T20:31:20.131Z,96.30
2023-01-22T20:33:47.559Z,96.90
2023-01-22T20:36:15.375Z,96.70
2023-01-22T20:38:44.671Z,97.20
2023-01-22T20:41:12.374Z,97.00
2023-01-22T20:43:41.253Z,95.70
2023-01-22T20:46:27.491Z,94.60
2023-01-22T20:48:57.528Z,94.50
2023-01-22T20:51:27.380Z,95.70
2023-01-22T20:53:55.970Z,96.00
2023-01-22T20:56:27.291Z,96.20
2023-01-22T20:59:10.943Z,96.20
2023-01-22T21:01:38.248Z,96.50
2023-01-22T21:04:05.555Z,95.90
2023-01-22T21:06:34.612Z,95.60
2023-01-22T21:09:02.356Z,95.40
2023-01-22T21:11:31.399Z,95.30
2023-01-22T21:14:00.609Z,94.60
2023-01-22T21:16:30.733Z,94.30
2023-01-22T21:19:03.764Z,95.10
2023-01-22T21:21:32.458Z,96.00
2023-01-22T21:23:59.948Z,96.40
2023-01-22T21:26:29.622Z,96.10
2023-01-22T21:29:08.998Z,96.40
2023-01-22T21:31:37.163Z,96.50
2023-01-22T21:34:06.223Z,97.10
2023-01-22T21:36:39.486Z,98.10
2023-01-22T21:39:09.179Z,94.90
2023-01-22T21:41:36.969Z,94.00
2023-01-22T21:44:22.513Z,93.20
2023-01-22T21:46:49.915Z,91.50
2023-01-22T21:49:25.472Z,91.20
2023-01-22T21:51:53.569Z,91.70
2023-01-22T21:54:34.935Z,92.40
2023-01-22T21:57:02.639Z,92.10
2023-01-22T21:59:29.558Z,92.50
2023-01-22T22:01:56.450Z,94.00
2023-01-22T22:04:25.343Z,93.00
2023-01-22T22:06:53.513Z,93.20
2023-01-22T22:09:22.873Z,93.50
2023-01-22T22:11:50.511Z,93.40
2023-01-22T22:14:22.004Z,93.00
2023-01-22T22:16:49.566Z,93.60
2023-01-22T22:19:17.844Z,93.70
2023-01-22T22:21:45.254Z,93.00
2023-01-22T22:24:12.713Z,93.20
2023-01-22T22:26:40.378Z,92.40
2023-01-22T22:29:08.575Z,92.30
2023-01-22T22:31:35.828Z,91.20
2023-01-22T22:34:02.797Z,90.70
2023-01-22T22:36:31.127Z,90.50
2023-01-22T22:38:59.480Z,90.90
2023-01-22T22:41:28.553Z,91.00
2023-01-22T22:43:56.526Z,91.90
2023-01-22T22:46:25.049Z,93.70
2023-01-22T22:48:53.860Z,95.90
2023-01-22T22:51:25.601Z,95.00
2023-01-22T22:53:54.980Z,94.70
2023-01-22T22:56:22.732Z,94.10
2023-01-22T22:58:49.985Z,93.90
2023-01-22T23:01:19.295Z,93.40
2023-01-22T23:03:46.194Z,92.40
2023-01-22T23:06:22.258Z,93.40
2023-01-22T23:08:52.745Z,92.40
2023-01-22T23:11:21.614Z,92.60
2023-01-22T23:13:52.178Z,93.00
2023-01-22T23:16:21.981Z,93.20
2023-01-22T23:18:51.242Z,93.50
2023-01-22T23:21:23.446Z,94.30
2023-01-22T23:23:51.178Z,94.40
2023-01-22T23:26:22.981Z,95.40
2023-01-22T23:28:52.123Z,96.00
2023-01-22T23:31:19.090Z,97.20
2023-01-22T23:33:46.529Z,97.80
2023-01-22T23:36:17.136Z,97.40
2023-01-22T23:38:44.949Z,97.30
2023-01-22T23:41:16.525Z,97.20
2023-01-22T23:43:44.121Z,96.80
2023-01-22T23:46:15.509Z,96.00
2023-01-22T23:48:42.944Z,95.70
2023-01-22T23:51:11.472Z,95.90
2023-01-22T23:53:40.946Z,96.10
2023-01-22T23:56:08.793Z,96.50
2023-01-22T23:58:36.108Z,96.50
